sensor_id;sensor_type;location;lat;lon;timestamp;pressure;altitude;pressure_sealevel;temperature;humidity
8920;BME280;4495;42.644;23.274;2024-02-16T00:00:12;93503.31;;;1.01;65.27
8920;BME280;4495;42.644;23.274;2024-02-16T00:02:41;93502.25;;;0.97;65.85
8920;BME280;4495;42.644;23.274;2024-02-16T00:05:08;93501.63;;;0.85;66.03
8920;BME280;4495;42.644;23.274;2024-02-16T00:07:33;93507.34;;;0.92;66.73
8920;BME280;4495;42.644;23.274;2024-02-16T00:09:59;93502.63;;;0.79;66.96
8920;BME280;4495;42.644;23.274;2024-02-16T00:12:25;93508.72;;;0.73;67.45
8920;BME280;4495;42.644;23.274;2024-02-16T00:14:51;93507.13;;;0.67;66.94
8920;BME280;4495;42.644;23.274;2024-02-16T00:17:16;93501.97;;;0.61;67.94
8920;BME280;4495;42.644;23.274;2024-02-16T00:19:41;93502.06;;;0.72;67.10
8920;BME280;4495;42.644;23.274;2024-02-16T00:22:07;93508.69;;;0.68;68.16
8920;BME280;4495;42.644;23.274;2024-02-16T00:24:33;93515.72;;;0.50;69.50
8920;BME280;4495;42.644;23.274;2024-02-16T00:26:59;93505.66;;;0.44;68.95
8920;BME280;4495;42.644;23.274;2024-02-16T00:29:25;93503.63;;;0.46;68.44
8920;BME280;4495;42.644;23.274;2024-02-16T00:31:51;93508.66;;;0.35;69.25
8920;BME280;4495;42.644;23.274;2024-02-16T00:34:16;93514.16;;;0.22;70.86
8920;BME280;4495;42.644;23.274;2024-02-16T00:36:41;93514.66;;;0.19;71.46
8920;BME280;4495;42.644;23.274;2024-02-16T00:39:07;93508.94;;;0.12;69.32
8920;BME280;4495;42.644;23.274;2024-02-16T00:41:32;93510.66;;;0.06;71.01
8920;BME280;4495;42.644;23.274;2024-02-16T00:43:58;93514.44;;;-0.02;71.78
8920;BME280;4495;42.644;23.274;2024-02-16T00:46:23;93515.50;;;0.03;71.70
8920;BME280;4495;42.644;23.274;2024-02-16T00:48:49;93509.28;;;-0.07;71.17
8920;BME280;4495;42.644;23.274;2024-02-16T00:51:15;93522.38;;;0.02;72.65
8920;BME280;4495;42.644;23.274;2024-02-16T00:53:41;93515.00;;;0.06;71.59
8920;BME280;4495;42.644;23.274;2024-02-16T00:56:06;93518.06;;;0.03;72.21
8920;BME280;4495;42.644;23.274;2024-02-16T00:58:32;93514.72;;;0.02;71.64
8920;BME280;4495;42.644;23.274;2024-02-16T01:00:58;93518.59;;;0.05;71.54
8920;BME280;4495;42.644;23.274;2024-02-16T01:03:23;93519.63;;;0.09;73.28
8920;BME280;4495;42.644;23.274;2024-02-16T01:05:51;93514.25;;;0.05;71.38
8920;BME280;4495;42.644;23.274;2024-02-16T01:08:17;93506.56;;;0.05;72.84
8920;BME280;4495;42.644;23.274;2024-02-16T01:10:42;93508.59;;;0.03;71.47
8920;BME280;4495;42.644;23.274;2024-02-16T01:13:08;93500.75;;;0.10;71.34
8920;BME280;4495;42.644;23.274;2024-02-16T01:15:33;93506.09;;;0.08;72.16
8920;BME280;4495;42.644;23.274;2024-02-16T01:17:59;93507.28;;;0.01;72.02
8920;BME280;4495;42.644;23.274;2024-02-16T01:20:25;93505.75;;;-0.01;71.57
8920;BME280;4495;42.644;23.274;2024-02-16T01:22:51;93499.09;;;-0.02;71.45
8920;BME280;4495;42.644;23.274;2024-02-16T01:25:17;93506.75;;;-0.02;70.94
8920;BME280;4495;42.644;23.274;2024-02-16T01:27:43;93495.09;;;-0.14;71.97
8920;BME280;4495;42.644;23.274;2024-02-16T01:30:09;93494.94;;;-0.08;71.32
8920;BME280;4495;42.644;23.274;2024-02-16T01:32:34;93502.28;;;-0.11;71.55
8920;BME280;4495;42.644;23.274;2024-02-16T01:35:00;93496.13;;;-0.15;73.59
8920;BME280;4495;42.644;23.274;2024-02-16T01:37:25;93495.47;;;-0.06;73.04
8920;BME280;4495;42.644;23.274;2024-02-16T01:39:51;93494.34;;;-0.15;71.57
8920;BME280;4495;42.644;23.274;2024-02-16T01:42:16;93492.78;;;-0.16;71.96
8920;BME280;4495;42.644;23.274;2024-02-16T01:44:41;93485.19;;;-0.11;72.90
8920;BME280;4495;42.644;23.274;2024-02-16T01:47:07;93493.84;;;-0.12;71.71
8920;BME280;4495;42.644;23.274;2024-02-16T01:49:33;93487.16;;;-0.18;70.52
8920;BME280;4495;42.644;23.274;2024-02-16T01:51:59;93486.25;;;-0.07;70.32
8920;BME280;4495;42.644;23.274;2024-02-16T01:54:25;93484.94;;;-0.09;71.20
8920;BME280;4495;42.644;23.274;2024-02-16T01:56:50;93476.72;;;-0.11;71.52
8920;BME280;4495;42.644;23.274;2024-02-16T01:59:17;93477.50;;;-0.11;71.42
8920;BME280;4495;42.644;23.274;2024-02-16T02:01:42;93479.00;;;-0.15;70.49
8920;BME280;4495;42.644;23.274;2024-02-16T02:04:08;93479.81;;;-0.09;70.92
8920;BME280;4495;42.644;23.274;2024-02-16T02:06:33;93479.50;;;-0.18;71.54
8920;BME280;4495;42.644;23.274;2024-02-16T02:08:59;93479.19;;;-0.22;72.08
8920;BME280;4495;42.644;23.274;2024-02-16T02:11:24;93486.13;;;-0.17;70.57
8920;BME280;4495;42.644;23.274;2024-02-16T02:13:50;93479.00;;;-0.15;71.88
8920;BME280;4495;42.644;23.274;2024-02-16T02:16:16;93470.66;;;-0.05;72.04
8920;BME280;4495;42.644;23.274;2024-02-16T02:18:41;93486.50;;;-0.08;70.20
8920;BME280;4495;42.644;23.274;2024-02-16T02:21:08;93480.97;;;0.00;71.94
8920;BME280;4495;42.644;23.274;2024-02-16T02:23:34;93478.63;;;-0.02;70.35
8920;BME280;4495;42.644;23.274;2024-02-16T02:25:59;93489.84;;;-0.03;71.41
8920;BME280;4495;42.644;23.274;2024-02-16T02:28:24;93479.63;;;-0.03;70.94
8920;BME280;4495;42.644;23.274;2024-02-16T02:30:50;93486.31;;;-0.02;72.48
8920;BME280;4495;42.644;23.274;2024-02-16T02:33:15;93485.78;;;-0.04;72.53
8920;BME280;4495;42.644;23.274;2024-02-16T02:35:41;93495.59;;;0.05;70.25
8920;BME280;4495;42.644;23.274;2024-02-16T02:38:06;93488.56;;;-0.05;73.31
8920;BME280;4495;42.644;23.274;2024-02-16T02:40:32;93490.72;;;-0.19;73.43
8920;BME280;4495;42.644;23.274;2024-02-16T02:42:57;93483.53;;;-0.22;73.00
8920;BME280;4495;42.644;23.274;2024-02-16T02:45:23;93483.56;;;-0.17;71.38
8920;BME280;4495;42.644;23.274;2024-02-16T02:47:49;93477.03;;;-0.30;71.21
8920;BME280;4495;42.644;23.274;2024-02-16T02:50:14;93486.28;;;-0.29;73.25
8920;BME280;4495;42.644;23.274;2024-02-16T02:52:40;93483.44;;;-0.27;73.00
8920;BME280;4495;42.644;23.274;2024-02-16T02:55:05;93479.53;;;-0.35;70.96
8920;BME280;4495;42.644;23.274;2024-02-16T02:57:31;93478.69;;;-0.40;72.42
8920;BME280;4495;42.644;23.274;2024-02-16T03:00:07;93478.00;;;-0.36;72.25
8920;BME280;4495;42.644;23.274;2024-02-16T03:02:41;93485.72;;;-0.31;72.28
8920;BME280;4495;42.644;23.274;2024-02-16T03:05:09;93479.66;;;-0.25;71.78
8920;BME280;4495;42.644;23.274;2024-02-16T03:07:34;93486.00;;;-0.27;71.80
8920;BME280;4495;42.644;23.274;2024-02-16T03:10:00;93479.06;;;-0.32;72.18
8920;BME280;4495;42.644;23.274;2024-02-16T03:12:25;93478.47;;;-0.39;72.03
8920;BME280;4495;42.644;23.274;2024-02-16T03:14:51;93471.50;;;-0.44;72.30
8920;BME280;4495;42.644;23.274;2024-02-16T03:17:16;93480.50;;;-0.41;74.34
8920;BME280;4495;42.644;23.274;2024-02-16T03:19:42;93484.06;;;-0.42;73.04
8920;BME280;4495;42.644;23.274;2024-02-16T03:22:07;93486.31;;;-0.46;73.86
8920;BME280;4495;42.644;23.274;2024-02-16T03:24:33;93478.97;;;-0.42;73.58
8920;BME280;4495;42.644;23.274;2024-02-16T03:26:59;93477.53;;;-0.33;73.62
8920;BME280;4495;42.644;23.274;2024-02-16T03:29:26;93479.84;;;-0.31;73.16
8920;BME280;4495;42.644;23.274;2024-02-16T03:31:51;93485.47;;;-0.29;73.95
8920;BME280;4495;42.644;23.274;2024-02-16T03:34:16;93485.31;;;-0.45;74.87
8920;BME280;4495;42.644;23.274;2024-02-16T03:36:42;93486.91;;;-0.38;74.76
8920;BME280;4495;42.644;23.274;2024-02-16T03:39:07;93477.72;;;-0.39;73.43
8920;BME280;4495;42.644;23.274;2024-02-16T03:41:34;93487.94;;;-0.39;72.87
8920;BME280;4495;42.644;23.274;2024-02-16T03:44:00;93485.38;;;-0.39;73.68
8920;BME280;4495;42.644;23.274;2024-02-16T03:46:26;93478.19;;;-0.43;74.97
8920;BME280;4495;42.644;23.274;2024-02-16T03:48:52;93490.44;;;-0.45;74.41
8920;BME280;4495;42.644;23.274;2024-02-16T03:51:17;93486.44;;;-0.35;75.28
8920;BME280;4495;42.644;23.274;2024-02-16T03:53:43;93480.63;;;-0.31;74.46
8920;BME280;4495;42.644;23.274;2024-02-16T03:56:10;93491.66;;;-0.25;72.68
8920;BME280;4495;42.644;23.274;2024-02-16T03:58:37;93482.16;;;-0.30;73.86
8920;BME280;4495;42.644;23.274;2024-02-16T04:01:04;93480.66;;;-0.26;72.15
8920;BME280;4495;42.644;23.274;2024-02-16T04:03:32;93476.59;;;-0.27;72.24
8920;BME280;4495;42.644;23.274;2024-02-16T04:05:57;93477.94;;;-0.19;72.92
8920;BME280;4495;42.644;23.274;2024-02-16T04:08:24;93479.53;;;-0.13;71.64
8920;BME280;4495;42.644;23.274;2024-02-16T04:10:50;93475.19;;;-0.12;73.10
8920;BME280;4495;42.644;23.274;2024-02-16T04:13:15;93476.78;;;-0.06;72.52
8920;BME280;4495;42.644;23.274;2024-02-16T04:15:41;93470.47;;;0.02;72.57
8920;BME280;4495;42.644;23.274;2024-02-16T04:18:06;93468.44;;;0.04;71.48
8920;BME280;4495;42.644;23.274;2024-02-16T04:20:32;93467.91;;;0.02;72.31
8920;BME280;4495;42.644;23.274;2024-02-16T04:22:57;93470.50;;;0.07;71.95
8920;BME280;4495;42.644;23.274;2024-02-16T04:25:22;93469.03;;;0.11;71.69
8920;BME280;4495;42.644;23.274;2024-02-16T04:27:48;93475.69;;;0.12;72.83
8920;BME280;4495;42.644;23.274;2024-02-16T04:30:14;93473.34;;;0.05;70.99
8920;BME280;4495;42.644;23.274;2024-02-16T04:32:39;93476.34;;;0.02;71.28
8920;BME280;4495;42.644;23.274;2024-02-16T04:35:05;93481.00;;;0.05;72.35
8920;BME280;4495;42.644;23.274;2024-02-16T04:37:31;93484.69;;;-0.08;72.58
8920;BME280;4495;42.644;23.274;2024-02-16T04:39:56;93482.72;;;-0.01;71.32
8920;BME280;4495;42.644;23.274;2024-02-16T04:42:22;93482.38;;;-0.09;73.06
8920;BME280;4495;42.644;23.274;2024-02-16T04:44:47;93483.94;;;-0.08;72.94
8920;BME280;4495;42.644;23.274;2024-02-16T04:47:14;93489.03;;;-0.08;72.75
8920;BME280;4495;42.644;23.274;2024-02-16T04:49:39;93487.97;;;-0.12;72.58
8920;BME280;4495;42.644;23.274;2024-02-16T04:52:05;93488.66;;;-0.22;72.19
8920;BME280;4495;42.644;23.274;2024-02-16T04:54:30;93487.38;;;-0.19;71.80
8920;BME280;4495;42.644;23.274;2024-02-16T04:56:56;93484.97;;;-0.31;73.51
8920;BME280;4495;42.644;23.274;2024-02-16T04:59:21;93482.50;;;-0.21;72.87
8920;BME280;4495;42.644;23.274;2024-02-16T05:01:47;93484.16;;;-0.32;74.14
8920;BME280;4495;42.644;23.274;2024-02-16T05:04:13;93480.13;;;-0.28;73.09
8920;BME280;4495;42.644;23.274;2024-02-16T05:06:41;93495.78;;;-0.24;72.13
8920;BME280;4495;42.644;23.274;2024-02-16T05:09:07;93486.53;;;-0.25;73.64
8920;BME280;4495;42.644;23.274;2024-02-16T05:11:33;93491.84;;;-0.32;71.84
8920;BME280;4495;42.644;23.274;2024-02-16T05:13:58;93494.56;;;-0.38;73.93
8920;BME280;4495;42.644;23.274;2024-02-16T05:16:25;93495.19;;;-0.31;72.51
8920;BME280;4495;42.644;23.274;2024-02-16T05:18:50;93502.91;;;-0.48;73.36
8920;BME280;4495;42.644;23.274;2024-02-16T05:21:16;93500.47;;;-0.38;74.31
8920;BME280;4495;42.644;23.274;2024-02-16T05:23:41;93507.59;;;-0.40;73.34
8920;BME280;4495;42.644;23.274;2024-02-16T05:26:07;93510.00;;;-0.33;72.69
8920;BME280;4495;42.644;23.274;2024-02-16T05:28:32;93511.03;;;-0.51;74.97
8920;BME280;4495;42.644;23.274;2024-02-16T05:31:03;93505.31;;;-0.58;73.37
8920;BME280;4495;42.644;23.274;2024-02-16T05:33:37;93510.78;;;-0.50;74.96
8920;BME280;4495;42.644;23.274;2024-02-16T05:36:03;93522.25;;;-0.52;75.32
8920;BME280;4495;42.644;23.274;2024-02-16T05:38:28;93521.13;;;-0.61;75.70
8920;BME280;4495;42.644;23.274;2024-02-16T05:41:00;93529.81;;;-0.63;74.98
8920;BME280;4495;42.644;23.274;2024-02-16T05:43:25;93527.47;;;-0.64;75.80
8920;BME280;4495;42.644;23.274;2024-02-16T05:45:51;93526.00;;;-0.60;75.68
8920;BME280;4495;42.644;23.274;2024-02-16T05:48:16;93532.91;;;-0.60;75.73
8920;BME280;4495;42.644;23.274;2024-02-16T05:50:42;93533.66;;;-0.60;75.11
8920;BME280;4495;42.644;23.274;2024-02-16T05:53:09;93531.66;;;-0.58;76.15
8920;BME280;4495;42.644;23.274;2024-02-16T05:55:36;93536.50;;;-0.56;75.16
8920;BME280;4495;42.644;23.274;2024-02-16T05:58:01;93533.34;;;-0.47;75.20
8920;BME280;4495;42.644;23.274;2024-02-16T06:00:27;93526.75;;;-0.43;75.78
8920;BME280;4495;42.644;23.274;2024-02-16T06:02:53;93535.09;;;-0.47;76.80
8920;BME280;4495;42.644;23.274;2024-02-16T06:05:18;93537.25;;;-0.39;74.71
8920;BME280;4495;42.644;23.274;2024-02-16T06:07:45;93528.75;;;-0.45;74.18
8920;BME280;4495;42.644;23.274;2024-02-16T06:10:10;93533.44;;;-0.36;75.24
8920;BME280;4495;42.644;23.274;2024-02-16T06:12:37;93536.44;;;-0.45;76.05
8920;BME280;4495;42.644;23.274;2024-02-16T06:15:06;93531.25;;;-0.28;74.69
8920;BME280;4495;42.644;23.274;2024-02-16T06:17:32;93526.69;;;-0.26;74.67
8920;BME280;4495;42.644;23.274;2024-02-16T06:19:57;93528.13;;;-0.13;73.10
8920;BME280;4495;42.644;23.274;2024-02-16T06:22:23;93532.22;;;-0.12;73.24
8920;BME280;4495;42.644;23.274;2024-02-16T06:24:48;93540.47;;;-0.05;72.99
8920;BME280;4495;42.644;23.274;2024-02-16T06:27:14;93543.63;;;0.03;75.24
8920;BME280;4495;42.644;23.274;2024-02-16T06:29:40;93535.47;;;0.06;72.53
8920;BME280;4495;42.644;23.274;2024-02-16T06:32:05;93536.59;;;0.15;74.33
8920;BME280;4495;42.644;23.274;2024-02-16T06:34:31;93548.00;;;0.29;71.60
8920;BME280;4495;42.644;23.274;2024-02-16T06:36:57;93533.31;;;0.47;70.98
8920;BME280;4495;42.644;23.274;2024-02-16T06:39:22;93535.88;;;0.47;72.36
8920;BME280;4495;42.644;23.274;2024-02-16T06:41:48;93536.38;;;0.44;72.50
8920;BME280;4495;42.644;23.274;2024-02-16T06:44:15;93538.78;;;0.55;69.42
8920;BME280;4495;42.644;23.274;2024-02-16T06:46:41;93535.88;;;0.74;70.31
8920;BME280;4495;42.644;23.274;2024-02-16T06:49:07;93534.16;;;0.85;71.22
8920;BME280;4495;42.644;23.274;2024-02-16T06:51:32;93535.00;;;0.90;71.27
8920;BME280;4495;42.644;23.274;2024-02-16T06:53:58;93538.28;;;0.86;69.05
8920;BME280;4495;42.644;23.274;2024-02-16T06:56:23;93546.91;;;1.12;67.29
8920;BME280;4495;42.644;23.274;2024-02-16T06:58:49;93552.88;;;1.22;68.20
8920;BME280;4495;42.644;23.274;2024-02-16T07:01:15;93549.59;;;1.27;67.40
8920;BME280;4495;42.644;23.274;2024-02-16T07:03:42;93554.50;;;1.34;69.14
8920;BME280;4495;42.644;23.274;2024-02-16T07:06:08;93553.50;;;1.35;65.70
8920;BME280;4495;42.644;23.274;2024-02-16T07:08:38;93552.03;;;1.49;67.13
8920;BME280;4495;42.644;23.274;2024-02-16T07:11:04;93559.09;;;1.32;66.53
8920;BME280;4495;42.644;23.274;2024-02-16T07:13:31;93560.81;;;1.58;67.29
8920;BME280;4495;42.644;23.274;2024-02-16T07:15:57;93561.19;;;1.77;66.50
8920;BME280;4495;42.644;23.274;2024-02-16T07:18:22;93553.72;;;1.76;66.26
8920;BME280;4495;42.644;23.274;2024-02-16T07:20:48;93549.66;;;1.80;65.22
8920;BME280;4495;42.644;23.274;2024-02-16T07:23:14;93549.34;;;1.71;64.53
8920;BME280;4495;42.644;23.274;2024-02-16T07:25:41;93549.16;;;1.88;65.12
8920;BME280;4495;42.644;23.274;2024-02-16T07:28:07;93537.63;;;1.91;64.67
8920;BME280;4495;42.644;23.274;2024-02-16T07:30:33;93546.94;;;2.07;64.49
8920;BME280;4495;42.644;23.274;2024-02-16T07:32:59;93553.91;;;2.22;64.62
8920;BME280;4495;42.644;23.274;2024-02-16T07:35:24;93557.78;;;2.40;64.47
8920;BME280;4495;42.644;23.274;2024-02-16T07:37:50;93549.09;;;2.46;63.07
8920;BME280;4495;42.644;23.274;2024-02-16T07:40:22;93549.91;;;2.67;62.74
8920;BME280;4495;42.644;23.274;2024-02-16T07:42:48;93550.91;;;2.71;62.54
8920;BME280;4495;42.644;23.274;2024-02-16T07:45:13;93555.28;;;2.70;62.90
8920;BME280;4495;42.644;23.274;2024-02-16T07:47:40;93549.13;;;2.87;64.59
8920;BME280;4495;42.644;23.274;2024-02-16T07:50:07;93549.94;;;2.92;61.57
8920;BME280;4495;42.644;23.274;2024-02-16T07:52:32;93553.53;;;3.02;62.94
8920;BME280;4495;42.644;23.274;2024-02-16T07:54:58;93551.22;;;2.85;61.19
8920;BME280;4495;42.644;23.274;2024-02-16T07:57:23;93561.25;;;2.97;62.99
8920;BME280;4495;42.644;23.274;2024-02-16T07:59:49;93561.75;;;3.09;61.60
8920;BME280;4495;42.644;23.274;2024-02-16T08:02:14;93557.63;;;3.13;62.78
8920;BME280;4495;42.644;23.274;2024-02-16T08:04:50;93562.53;;;3.09;61.07
8920;BME280;4495;42.644;23.274;2024-02-16T08:07:16;93559.97;;;3.09;62.14
8920;BME280;4495;42.644;23.274;2024-02-16T08:09:45;93560.47;;;3.17;62.11
8920;BME280;4495;42.644;23.274;2024-02-16T08:12:11;93561.50;;;3.26;61.73
8920;BME280;4495;42.644;23.274;2024-02-16T08:14:41;93567.63;;;3.40;61.93
8920;BME280;4495;42.644;23.274;2024-02-16T08:17:07;93563.50;;;3.60;59.82
8920;BME280;4495;42.644;23.274;2024-02-16T08:19:34;93561.47;;;3.41;60.73
8920;BME280;4495;42.644;23.274;2024-02-16T08:22:01;93561.94;;;3.59;61.27
8920;BME280;4495;42.644;23.274;2024-02-16T08:24:27;93560.41;;;3.63;61.93
8920;BME280;4495;42.644;23.274;2024-02-16T08:26:52;93561.13;;;3.79;60.23
8920;BME280;4495;42.644;23.274;2024-02-16T08:29:18;93566.06;;;3.75;60.43
8920;BME280;4495;42.644;23.274;2024-02-16T08:31:43;93579.13;;;3.89;60.51
8920;BME280;4495;42.644;23.274;2024-02-16T08:34:09;93576.03;;;3.97;59.03
8920;BME280;4495;42.644;23.274;2024-02-16T08:36:36;93575.75;;;4.04;59.26
8920;BME280;4495;42.644;23.274;2024-02-16T08:39:01;93569.50;;;4.20;57.96
8920;BME280;4495;42.644;23.274;2024-02-16T08:41:27;93570.03;;;4.12;59.54
8920;BME280;4495;42.644;23.274;2024-02-16T08:43:52;93567.47;;;4.12;59.47
8920;BME280;4495;42.644;23.274;2024-02-16T08:46:17;93564.63;;;4.19;59.96
8920;BME280;4495;42.644;23.274;2024-02-16T08:48:45;93563.31;;;4.21;58.61
8920;BME280;4495;42.644;23.274;2024-02-16T08:51:11;93565.59;;;4.28;58.14
8920;BME280;4495;42.644;23.274;2024-02-16T08:53:36;93572.22;;;4.49;58.03
8920;BME280;4495;42.644;23.274;2024-02-16T08:56:02;93574.75;;;4.54;58.60
8920;BME280;4495;42.644;23.274;2024-02-16T08:58:27;93575.59;;;4.45;57.74
8920;BME280;4495;42.644;23.274;2024-02-16T09:00:53;93570.94;;;4.47;58.62
8920;BME280;4495;42.644;23.274;2024-02-16T09:03:18;93575.81;;;4.53;57.44
8920;BME280;4495;42.644;23.274;2024-02-16T09:05:44;93578.81;;;4.71;57.52
8920;BME280;4495;42.644;23.274;2024-02-16T09:08:10;93575.66;;;4.79;56.60
8920;BME280;4495;42.644;23.274;2024-02-16T09:10:36;93574.63;;;4.75;57.33
8920;BME280;4495;42.644;23.274;2024-02-16T09:13:02;93581.84;;;4.73;57.93
8920;BME280;4495;42.644;23.274;2024-02-16T09:15:27;93585.53;;;4.67;57.19
8920;BME280;4495;42.644;23.274;2024-02-16T09:17:53;93592.88;;;4.89;58.53
8920;BME280;4495;42.644;23.274;2024-02-16T09:20:19;93582.88;;;4.77;56.89
8920;BME280;4495;42.644;23.274;2024-02-16T09:22:48;93591.06;;;4.89;56.33
8920;BME280;4495;42.644;23.274;2024-02-16T09:25:14;93592.53;;;5.00;56.68
8920;BME280;4495;42.644;23.274;2024-02-16T09:27:40;93589.88;;;5.11;56.53
8920;BME280;4495;42.644;23.274;2024-02-16T09:30:11;93591.63;;;5.15;54.67
8920;BME280;4495;42.644;23.274;2024-02-16T09:32:38;93588.75;;;5.22;54.91
8920;BME280;4495;42.644;23.274;2024-02-16T09:35:04;93584.75;;;5.40;55.78
8920;BME280;4495;42.644;23.274;2024-02-16T09:37:30;93586.44;;;5.55;55.69
8920;BME280;4495;42.644;23.274;2024-02-16T09:39:55;93588.19;;;5.59;55.27
8920;BME280;4495;42.644;23.274;2024-02-16T09:42:23;93591.53;;;5.65;54.32
8920;BME280;4495;42.644;23.274;2024-02-16T09:44:49;93592.72;;;5.73;54.83
8920;BME280;4495;42.644;23.274;2024-02-16T09:47:15;93588.19;;;5.89;53.51
8920;BME280;4495;42.644;23.274;2024-02-16T09:49:45;93583.34;;;5.82;56.52
8920;BME280;4495;42.644;23.274;2024-02-16T09:52:10;93596.69;;;5.89;54.10
8920;BME280;4495;42.644;23.274;2024-02-16T09:54:37;93590.75;;;5.89;54.15
8920;BME280;4495;42.644;23.274;2024-02-16T09:57:04;93591.66;;;6.03;53.92
8920;BME280;4495;42.644;23.274;2024-02-16T09:59:30;93584.91;;;6.07;54.69
8920;BME280;4495;42.644;23.274;2024-02-16T10:02:02;93579.38;;;5.95;54.16
8920;BME280;4495;42.644;23.274;2024-02-16T10:04:28;93582.19;;;5.93;53.84
8920;BME280;4495;42.644;23.274;2024-02-16T10:06:54;93568.75;;;5.96;54.01
8920;BME280;4495;42.644;23.274;2024-02-16T10:09:27;93575.09;;;6.09;53.65
8920;BME280;4495;42.644;23.274;2024-02-16T10:11:54;93566.34;;;6.05;52.45
8920;BME280;4495;42.644;23.274;2024-02-16T10:14:20;93558.91;;;6.22;53.09
8920;BME280;4495;42.644;23.274;2024-02-16T10:16:47;93565.84;;;6.27;53.21
8920;BME280;4495;42.644;23.274;2024-02-16T10:19:12;93566.84;;;6.31;52.99
8920;BME280;4495;42.644;23.274;2024-02-16T10:21:38;93561.06;;;6.39;52.90
8920;BME280;4495;42.644;23.274;2024-02-16T10:24:08;93554.38;;;6.57;52.19
8920;BME280;4495;42.644;23.274;2024-02-16T10:26:35;93553.50;;;6.43;51.37
8920;BME280;4495;42.644;23.274;2024-02-16T10:29:08;93560.00;;;6.40;52.88
8920;BME280;4495;42.644;23.274;2024-02-16T10:31:34;93556.50;;;6.31;52.79
8920;BME280;4495;42.644;23.274;2024-02-16T10:34:04;93550.34;;;6.27;51.12
8920;BME280;4495;42.644;23.274;2024-02-16T10:36:38;93544.50;;;6.40;52.45
8920;BME280;4495;42.644;23.274;2024-02-16T10:39:05;93542.13;;;6.44;51.96
8920;BME280;4495;42.644;23.274;2024-02-16T10:41:38;93546.66;;;6.52;53.00
8920;BME280;4495;42.644;23.274;2024-02-16T10:44:05;93545.44;;;6.69;52.27
8920;BME280;4495;42.644;23.274;2024-02-16T10:46:31;93540.59;;;6.43;51.63
8920;BME280;4495;42.644;23.274;2024-02-16T10:48:56;93537.25;;;6.61;51.85
8920;BME280;4495;42.644;23.274;2024-02-16T10:51:42;93528.50;;;6.76;52.59
8920;BME280;4495;42.644;23.274;2024-02-16T10:54:10;93539.00;;;6.85;53.45
8920;BME280;4495;42.644;23.274;2024-02-16T10:56:37;93531.38;;;6.75;51.33
8920;BME280;4495;42.644;23.274;2024-02-16T10:59:04;93543.00;;;6.77;52.01
8920;BME280;4495;42.644;23.274;2024-02-16T11:01:44;93527.13;;;6.84;52.21
8920;BME280;4495;42.644;23.274;2024-02-16T11:04:16;93525.97;;;6.90;51.35
8920;BME280;4495;42.644;23.274;2024-02-16T11:07:11;93523.56;;;7.13;51.75
8920;BME280;4495;42.644;23.274;2024-02-16T11:09:39;93529.06;;;7.25;53.42
8920;BME280;4495;42.644;23.274;2024-02-16T11:12:06;93520.94;;;7.32;51.00
8920;BME280;4495;42.644;23.274;2024-02-16T11:14:47;93528.38;;;7.19;49.18
8920;BME280;4495;42.644;23.274;2024-02-16T11:17:21;93515.13;;;7.07;49.99
8920;BME280;4495;42.644;23.274;2024-02-16T11:19:48;93522.44;;;7.19;50.92
8920;BME280;4495;42.644;23.274;2024-02-16T11:22:18;93522.03;;;7.44;49.64
8920;BME280;4495;42.644;23.274;2024-02-16T11:24:50;93515.72;;;7.64;49.41
8920;BME280;4495;42.644;23.274;2024-02-16T11:27:19;93513.16;;;7.78;48.82
8920;BME280;4495;42.644;23.274;2024-02-16T11:29:45;93511.97;;;7.84;51.57
8920;BME280;4495;42.644;23.274;2024-02-16T11:32:11;93505.88;;;7.94;47.81
8920;BME280;4495;42.644;23.274;2024-02-16T11:34:37;93508.16;;;7.96;47.36
8920;BME280;4495;42.644;23.274;2024-02-16T11:37:05;93502.09;;;8.00;46.08
8920;BME280;4495;42.644;23.274;2024-02-16T11:39:31;93495.19;;;7.96;46.64
8920;BME280;4495;42.644;23.274;2024-02-16T11:44:33;93495.84;;;8.29;45.97
8920;BME280;4495;42.644;23.274;2024-02-16T11:47:00;93500.41;;;8.60;46.06
8920;BME280;4495;42.644;23.274;2024-02-16T11:49:27;93493.72;;;8.81;46.98
8920;BME280;4495;42.644;23.274;2024-02-16T11:51:53;93488.44;;;9.40;44.88
8920;BME280;4495;42.644;23.274;2024-02-16T11:54:18;93494.50;;;9.35;45.33
8920;BME280;4495;42.644;23.274;2024-02-16T11:56:48;93492.16;;;9.96;42.51
8920;BME280;4495;42.644;23.274;2024-02-16T11:59:17;93488.06;;;10.13;43.41
8920;BME280;4495;42.644;23.274;2024-02-16T12:01:53;93488.16;;;10.74;42.91
8920;BME280;4495;42.644;23.274;2024-02-16T12:04:26;93488.38;;;11.42;40.90
8920;BME280;4495;42.644;23.274;2024-02-16T12:06:56;93486.13;;;11.23;41.41
8920;BME280;4495;42.644;23.274;2024-02-16T12:09:22;93490.13;;;11.12;38.82
8920;BME280;4495;42.644;23.274;2024-02-16T12:11:48;93482.03;;;11.60;38.50
8920;BME280;4495;42.644;23.274;2024-02-16T12:14:16;93476.59;;;12.84;37.94
8920;BME280;4495;42.644;23.274;2024-02-16T12:16:41;93466.16;;;13.39;35.16
8920;BME280;4495;42.644;23.274;2024-02-16T12:19:07;93488.88;;;14.08;34.71
8920;BME280;4495;42.644;23.274;2024-02-16T12:21:33;93486.25;;;14.08;32.44
8920;BME280;4495;42.644;23.274;2024-02-16T12:23:59;93476.16;;;15.00;32.35
8920;BME280;4495;42.644;23.274;2024-02-16T12:26:24;93470.28;;;15.19;34.18
8920;BME280;4495;42.644;23.274;2024-02-16T12:28:49;93477.69;;;15.01;33.14
8920;BME280;4495;42.644;23.274;2024-02-16T12:31:21;93473.41;;;16.00;32.22
8920;BME280;4495;42.644;23.274;2024-02-16T12:33:47;93470.63;;;16.09;30.99
8920;BME280;4495;42.644;23.274;2024-02-16T12:36:13;93472.22;;;16.49;29.08
8920;BME280;4495;42.644;23.274;2024-02-16T12:38:40;93470.03;;;16.00;31.13
8920;BME280;4495;42.644;23.274;2024-02-16T12:41:05;93467.16;;;16.05;30.83
8920;BME280;4495;42.644;23.274;2024-02-16T12:43:30;93467.81;;;15.70;32.27
8920;BME280;4495;42.644;23.274;2024-02-16T12:45:56;93460.72;;;13.56;32.32
8920;BME280;4495;42.644;23.274;2024-02-16T12:48:21;93455.41;;;12.44;36.05
8920;BME280;4495;42.644;23.274;2024-02-16T12:50:47;93462.19;;;12.45;36.57
8920;BME280;4495;42.644;23.274;2024-02-16T12:53:14;93464.63;;;12.20;37.82
8920;BME280;4495;42.644;23.274;2024-02-16T12:55:40;93458.53;;;12.16;36.45
8920;BME280;4495;42.644;23.274;2024-02-16T12:58:05;93466.53;;;11.73;38.53
8920;BME280;4495;42.644;23.274;2024-02-16T13:00:31;93459.97;;;11.67;38.19
8920;BME280;4495;42.644;23.274;2024-02-16T13:02:56;93467.69;;;11.45;39.14
8920;BME280;4495;42.644;23.274;2024-02-16T13:05:22;93459.81;;;11.16;39.29
8920;BME280;4495;42.644;23.274;2024-02-16T13:07:47;93463.03;;;11.04;39.10
8920;BME280;4495;42.644;23.274;2024-02-16T13:10:13;93463.41;;;10.68;39.76
8920;BME280;4495;42.644;23.274;2024-02-16T13:12:38;93460.31;;;10.31;40.90
8920;BME280;4495;42.644;23.274;2024-02-16T13:15:05;93461.44;;;9.50;42.43